sensor_id;sensor_type;location;lat;lon;timestamp;pressure;altitude;pressure_sealevel;temperature;humidity
23635;BME280;11994;51.038;16.974;2022-12-07T00:01:10;99747.80;;;3.47;96.31
23635;BME280;11994;51.038;16.974;2022-12-07T00:03:40;99754.31;;;3.44;96.31
23635;BME280;11994;51.038;16.974;2022-12-07T00:06:08;99758.19;;;3.42;96.37
23635;BME280;11994;51.038;16.974;2022-12-07T00:08:35;99756.47;;;3.41;96.30
23635;BME280;11994;51.038;16.974;2022-12-07T00:11:04;99759.91;;;3.43;96.24
23635;BME280;11994;51.038;16.974;2022-12-07T00:13:33;99746.12;;;3.38;96.30
23635;BME280;11994;51.038;16.974;2022-12-07T00:16:09;99746.12;;;3.38;96.30
23635;BME280;11994;51.038;16.974;2022-12-07T00:18:32;99741.37;;;3.39;96.38
23635;BME280;11994;51.038;16.974;2022-12-07T00:21:09;99745.67;;;3.39;96.35
23635;BME280;11994;51.038;16.974;2022-12-07T00:23:34;99740.06;;;3.38;96.33
23635;BME280;11994;51.038;16.974;2022-12-07T00:26:06;99735.30;;;3.39;96.30
23635;BME280;11994;51.038;16.974;2022-12-07T00:28:40;99732.72;;;3.42;96.36
23635;BME280;11994;51.038;16.974;2022-12-07T00:31:09;99735.29;;;3.45;96.45
23635;BME280;11994;51.038;16.974;2022-12-07T00:33:37;99730.11;;;3.48;96.48
23635;BME280;11994;51.038;16.974;2022-12-07T00:36:07;99726.64;;;3.46;96.32
23635;BME280;11994;51.038;16.974;2022-12-07T00:38:36;99720.61;;;3.44;96.28
23635;BME280;11994;51.038;16.974;2022-12-07T00:41:09;99724.47;;;3.47;96.31
23635;BME280;11994;51.038;16.974;2022-12-07T00:43:36;99719.28;;;3.47;96.17
23635;BME280;11994;51.038;16.974;2022-12-07T00:46:03;99718.86;;;3.46;96.18
23635;BME280;11994;51.038;16.974;2022-12-07T00:48:29;99718.02;;;3.44;96.15
23635;BME280;11994;51.038;16.974;2022-12-07T00:50:55;99722.35;;;3.42;96.13
23635;BME280;11994;51.038;16.974;2022-12-07T00:53:22;99716.72;;;3.42;96.18
23635;BME280;11994;51.038;16.974;2022-12-07T00:55:48;99722.33;;;3.43;96.13
23635;BME280;11994;51.038;16.974;2022-12-07T00:58:15;99718.86;;;3.46;96.04
23635;BME280;11994;51.038;16.974;2022-12-07T01:00:42;99727.09;;;3.44;96.07
23635;BME280;11994;51.038;16.974;2022-12-07T01:03:10;99735.28;;;3.43;96.02
23635;BME280;11994;51.038;16.974;2022-12-07T01:05:37;99734.45;;;3.44;96.05
23635;BME280;11994;51.038;16.974;2022-12-07T01:08:03;99735.73;;;3.43;95.95
23635;BME280;11994;51.038;16.974;2022-12-07T01:10:30;99735.31;;;3.42;95.84
23635;BME280;11994;51.038;16.974;2022-12-07T01:12:57;99730.55;;;3.41;95.92
23635;BME280;11994;51.038;16.974;2022-12-07T01:15:24;99737.02;;;3.40;95.87
23635;BME280;11994;51.038;16.974;2022-12-07T01:17:51;99728.84;;;3.36;95.87
23635;BME280;11994;51.038;16.974;2022-12-07T01:20:17;99733.16;;;3.34;95.93
23635;BME280;11994;51.038;16.974;2022-12-07T01:22:43;99733.61;;;3.33;96.01
23635;BME280;11994;51.038;16.974;2022-12-07T01:25:10;99730.98;;;3.35;95.98
23635;BME280;11994;51.038;16.974;2022-12-07T01:27:37;99723.66;;;3.34;95.97
23635;BME280;11994;51.038;16.974;2022-12-07T01:30:05;99726.68;;;3.35;96.01
23635;BME280;11994;51.038;16.974;2022-12-07T01:32:32;99736.18;;;3.38;96.07
23635;BME280;11994;51.038;16.974;2022-12-07T01:34:58;99731.44;;;3.36;96.00
23635;BME280;11994;51.038;16.974;2022-12-07T01:37:24;99721.08;;;3.36;95.98
23635;BME280;11994;51.038;16.974;2022-12-07T01:39:51;99722.34;;;3.37;95.97
23635;BME280;11994;51.038;16.974;2022-12-07T01:42:18;99728.41;;;3.38;95.98
23635;BME280;11994;51.038;16.974;2022-12-07T01:47:38;99729.27;;;3.34;95.86
23635;BME280;11994;51.038;16.974;2022-12-07T01:50:05;99722.39;;;3.30;95.85
23635;BME280;11994;51.038;16.974;2022-12-07T01:52:33;99725.81;;;3.29;95.88
23635;BME280;11994;51.038;16.974;2022-12-07T01:55:10;99727.13;;;3.32;95.84
23635;BME280;11994;51.038;16.974;2022-12-07T01:57:36;99733.18;;;3.31;95.86
23635;BME280;11994;51.038;16.974;2022-12-07T02:00:06;99731.45;;;3.28;95.79
23635;BME280;11994;51.038;16.974;2022-12-07T02:02:36;99727.55;;;3.24;95.73
23635;BME280;11994;51.038;16.974;2022-12-07T02:05:05;99728.45;;;3.21;95.84
23635;BME280;11994;51.038;16.974;2022-12-07T02:07:34;99735.79;;;3.16;95.76
23635;BME280;11994;51.038;16.974;2022-12-07T02:10:13;99731.92;;;3.13;95.72
23635;BME280;11994;51.038;16.974;2022-12-07T02:12:42;99726.73;;;3.08;95.83
23635;BME280;11994;51.038;16.974;2022-12-07T02:15:10;99731.06;;;3.06;95.99
23635;BME280;11994;51.038;16.974;2022-12-07T02:26:24;99729.34;;;2.99;96.11
23635;BME280;11994;51.038;16.974;2022-12-07T02:32:23;99725.89;;;2.94;96.31
23635;BME280;11994;51.038;16.974;2022-12-07T02:40:43;99730.65;;;2.93;96.52
23635;BME280;11994;51.038;16.974;2022-12-07T02:45:44;99727.63;;;2.91;96.59
23635;BME280;11994;51.038;16.974;2022-12-07T02:48:14;99725.45;;;2.89;96.64
23635;BME280;11994;51.038;16.974;2022-12-07T02:50:49;99729.36;;;2.87;96.65
23635;BME280;11994;51.038;16.974;2022-12-07T02:53:40;99724.59;;;2.87;96.71
23635;BME280;11994;51.038;16.974;2022-12-07T02:56:39;99718.13;;;2.87;96.70
23635;BME280;11994;51.038;16.974;2022-12-07T03:02:36;99720.70;;;2.90;96.83
23635;BME280;11994;51.038;16.974;2022-12-07T03:05:13;99722.44;;;2.89;96.93
23635;BME280;11994;51.038;16.974;2022-12-07T03:13:28;99719.41;;;2.93;96.99
23635;BME280;11994;51.038;16.974;2022-12-07T03:16:15;99712.94;;;2.93;97.04
23635;BME280;11994;51.038;16.974;2022-12-07T03:19:06;99711.63;;;2.97;97.18
23635;BME280;11994;51.038;16.974;2022-12-07T03:21:32;99710.78;;;2.95;97.12
23635;BME280;11994;51.038;16.974;2022-12-07T03:24:04;99710.36;;;2.96;97.13
23635;BME280;11994;51.038;16.974;2022-12-07T03:26:35;99712.08;;;2.97;97.14
23635;BME280;11994;51.038;16.974;2022-12-07T03:29:08;99702.98;;;2.98;97.07
23635;BME280;11994;51.038;16.974;2022-12-07T03:31:40;99709.05;;;2.99;97.09
23635;BME280;11994;51.038;16.974;2022-12-07T03:34:14;99713.80;;;2.98;97.15
23635;BME280;11994;51.038;16.974;2022-12-07T03:37:08;99708.19;;;2.97;97.19
23635;BME280;11994;51.038;16.974;2022-12-07T03:40:27;99698.25;;;2.98;97.11
23635;BME280;11994;51.038;16.974;2022-12-07T03:42:24;99710.34;;;2.99;97.09
23635;BME280;11994;51.038;16.974;2022-12-07T03:44:50;99700.85;;;2.99;97.12
23635;BME280;11994;51.038;16.974;2022-12-07T03:47:29;99696.52;;;3.00;97.26
23635;BME280;11994;51.038;16.974;2022-12-07T03:50:06;99694.78;;;3.03;97.29
23635;BME280;11994;51.038;16.974;2022-12-07T03:52:39;99689.59;;;3.03;97.22
23635;BME280;11994;51.038;16.974;2022-12-07T03:55:10;99687.88;;;3.04;97.22
23635;BME280;11994;51.038;16.974;2022-12-07T03:57:45;99685.30;;;3.04;97.12
23635;BME280;11994;51.038;16.974;2022-12-07T04:00:13;99686.14;;;3.06;97.20
23635;BME280;11994;51.038;16.974;2022-12-07T04:02:41;99679.66;;;3.06;97.12
23635;BME280;11994;51.038;16.974;2022-12-07T04:05:08;99676.65;;;3.05;97.13
23635;BME280;11994;51.038;16.974;2022-12-07T04:07:34;99677.52;;;3.05;97.15
23635;BME280;11994;51.038;16.974;2022-12-07T04:10:00;99684.42;;;3.05;97.16
23635;BME280;11994;51.038;16.974;2022-12-07T04:12:26;99688.30;;;3.05;97.05
23635;BME280;11994;51.038;16.974;2022-12-07T04:14:51;99691.77;;;3.05;97.08
23635;BME280;11994;51.038;16.974;2022-12-07T04:17:17;99693.91;;;3.06;97.20
23635;BME280;11994;51.038;16.974;2022-12-07T04:19:43;99687.02;;;3.05;97.28
23635;BME280;11994;51.038;16.974;2022-12-07T04:22:09;99694.79;;;3.06;97.26
23635;BME280;11994;51.038;16.974;2022-12-07T04:24:35;99690.91;;;3.06;97.21
23635;BME280;11994;51.038;16.974;2022-12-07T04:27:02;99686.56;;;3.07;97.18
23635;BME280;11994;51.038;16.974;2022-12-07T04:29:28;99687.87;;;3.10;97.30
23635;BME280;11994;51.038;16.974;2022-12-07T04:31:54;99679.23;;;3.12;97.36
23635;BME280;11994;51.038;16.974;2022-12-07T04:34:20;99686.13;;;3.15;97.32
23635;BME280;11994;51.038;16.974;2022-12-07T04:36:46;99686.55;;;3.14;97.31
23635;BME280;11994;51.038;16.974;2022-12-07T04:39:31;99678.78;;;3.14;97.34
23635;BME280;11994;51.038;16.974;2022-12-07T04:41:55;99677.48;;;3.14;97.20
23635;BME280;11994;51.038;16.974;2022-12-07T04:44:24;99676.62;;;3.17;97.29
23635;BME280;11994;51.038;16.974;2022-12-07T04:46:51;99681.38;;;3.19;97.37
23635;BME280;11994;51.038;16.974;2022-12-07T04:49:18;99684.81;;;3.18;97.33
23635;BME280;11994;51.038;16.974;2022-12-07T04:51:45;99676.62;;;3.18;97.45
23635;BME280;11994;51.038;16.974;2022-12-07T04:54:13;99679.21;;;3.18;97.41
23635;BME280;11994;51.038;16.974;2022-12-07T04:56:39;99680.09;;;3.19;97.37
23635;BME280;11994;51.038;16.974;2022-12-07T04:59:06;99672.30;;;3.25;97.53
23635;BME280;11994;51.038;16.974;2022-12-07T05:01:32;99675.31;;;3.27;97.47
23635;BME280;11994;51.038;16.974;2022-12-07T05:03:59;99673.56;;;3.29;97.49
23635;BME280;11994;51.038;16.974;2022-12-07T05:06:25;99673.98;;;3.29;97.43
23635;BME280;11994;51.038;16.974;2022-12-07T05:08:51;99681.77;;;3.29;97.41
23635;BME280;11994;51.038;16.974;2022-12-07T05:11:17;99680.04;;;3.28;97.32
23635;BME280;11994;51.038;16.974;2022-12-07T05:14:04;99678.75;;;3.31;97.35
23635;BME280;11994;51.038;16.974;2022-12-07T05:16:32;99680.02;;;3.34;97.34
23635;BME280;11994;51.038;16.974;2022-12-07T05:18:58;99681.77;;;3.33;97.43
23635;BME280;11994;51.038;16.974;2022-12-07T05:21:24;99679.18;;;3.33;97.49
23635;BME280;11994;51.038;16.974;2022-12-07T05:23:51;99677.00;;;3.31;97.34
23635;BME280;11994;51.038;16.974;2022-12-07T05:26:17;99676.58;;;3.30;97.40
23635;BME280;11994;51.038;16.974;2022-12-07T05:28:44;99672.67;;;3.35;97.50
23635;BME280;11994;51.038;16.974;2022-12-07T05:31:10;99669.23;;;3.36;97.39
23635;BME280;11994;51.038;16.974;2022-12-07T05:33:35;99672.25;;;3.35;97.32
23635;BME280;11994;51.038;16.974;2022-12-07T05:36:01;99673.55;;;3.34;97.27
23635;BME280;11994;51.038;16.974;2022-12-07T05:38:29;99674.84;;;3.34;97.22
23635;BME280;11994;51.038;16.974;2022-12-07T05:40:55;99671.41;;;3.33;97.13
23635;BME280;11994;51.038;16.974;2022-12-07T05:43:21;99677.86;;;3.36;97.03
23635;BME280;11994;51.038;16.974;2022-12-07T05:45:47;99672.25;;;3.37;96.91
23635;BME280;11994;51.038;16.974;2022-12-07T05:48:13;99679.16;;;3.38;96.83
23635;BME280;11994;51.038;16.974;2022-12-07T05:50:38;99674.84;;;3.37;96.59
23635;BME280;11994;51.038;16.974;2022-12-07T05:53:04;99678.31;;;3.36;96.52
23635;BME280;11994;51.038;16.974;2022-12-07T05:55:30;99677.85;;;3.35;96.38
23635;BME280;11994;51.038;16.974;2022-12-07T05:57:56;99678.31;;;3.34;96.24
23635;BME280;11994;51.038;16.974;2022-12-07T06:00:40;99684.79;;;3.36;96.15
23635;BME280;11994;51.038;16.974;2022-12-07T06:03:05;99677.44;;;3.37;96.08
23635;BME280;11994;51.038;16.974;2022-12-07T06:05:31;99681.75;;;3.38;96.03
23635;BME280;11994;51.038;16.974;2022-12-07T06:07:57;99677.02;;;3.36;95.80
23635;BME280;11994;51.038;16.974;2022-12-07T06:10:23;99679.16;;;3.38;95.86
23635;BME280;11994;51.038;16.974;2022-12-07T06:12:49;99677.44;;;3.38;95.88
23635;BME280;11994;51.038;16.974;2022-12-07T06:15:15;99676.56;;;3.38;95.76
23635;BME280;11994;51.038;16.974;2022-12-07T06:17:41;99676.56;;;3.39;95.77
23635;BME280;11994;51.038;16.974;2022-12-07T06:20:07;99675.70;;;3.42;95.50
23635;BME280;11994;51.038;16.974;2022-12-07T06:22:33;99681.30;;;3.43;95.40
23635;BME280;11994;51.038;16.974;2022-12-07T06:24:59;99686.48;;;3.41;95.34
23635;BME280;11994;51.038;16.974;2022-12-07T06:27:26;99675.23;;;3.42;95.27
23635;BME280;11994;51.038;16.974;2022-12-07T06:29:52;99668.34;;;3.43;95.28
23635;BME280;11994;51.038;16.974;2022-12-07T06:32:18;99676.12;;;3.43;95.14
23635;BME280;11994;51.038;16.974;2022-12-07T06:34:44;99671.77;;;3.43;95.03
23635;BME280;11994;51.038;16.974;2022-12-07T06:37:09;99672.20;;;3.46;94.95
23635;BME280;11994;51.038;16.974;2022-12-07T06:39:35;99677.39;;;3.49;94.83
23635;BME280;11994;51.038;16.974;2022-12-07T06:42:01;99675.64;;;3.49;94.78
23635;BME280;11994;51.038;16.974;2022-12-07T06:44:27;99684.72;;;3.51;94.75
23635;BME280;11994;51.038;16.974;2022-12-07T06:46:52;99681.70;;;3.51;94.60
23635;BME280;11994;51.038;16.974;2022-12-07T06:49:18;99681.25;;;3.52;94.51
23635;BME280;11994;51.038;16.974;2022-12-07T06:51:44;99683.00;;;3.51;94.49
23635;BME280;11994;51.038;16.974;2022-12-07T06:54:11;99678.23;;;3.52;94.05
23635;BME280;11994;51.038;16.974;2022-12-07T06:56:38;99679.08;;;3.54;94.13
23635;BME280;11994;51.038;16.974;2022-12-07T06:59:05;99682.55;;;3.55;93.97
23635;BME280;11994;51.038;16.974;2022-12-07T07:01:32;99680.37;;;3.54;93.85
23635;BME280;11994;51.038;16.974;2022-12-07T07:03:59;99674.77;;;3.53;93.76
23635;BME280;11994;51.038;16.974;2022-12-07T07:06:25;99683.42;;;3.51;93.54
23635;BME280;11994;51.038;16.974;2022-12-07T07:08:51;99686.46;;;3.49;93.46
23635;BME280;11994;51.038;16.974;2022-12-07T07:11:17;99676.97;;;3.48;93.43
23635;BME280;11994;51.038;16.974;2022-12-07T07:13:44;99675.64;;;3.49;93.22
23635;BME280;11994;51.038;16.974;2022-12-07T07:16:10;99675.67;;;3.48;93.15
23635;BME280;11994;51.038;16.974;2022-12-07T07:18:37;99668.31;;;3.46;93.16
23635;BME280;11994;51.038;16.974;2022-12-07T07:21:03;99672.20;;;3.47;93.10
23635;BME280;11994;51.038;16.974;2022-12-07T07:23:29;99666.59;;;3.46;93.13
23635;BME280;11994;51.038;16.974;2022-12-07T07:25:55;99665.72;;;3.46;93.07
23635;BME280;11994;51.038;16.974;2022-12-07T07:28:21;99668.77;;;3.45;92.92
23635;BME280;11994;51.038;16.974;2022-12-07T07:30:47;99664.84;;;3.47;92.82
23635;BME280;11994;51.038;16.974;2022-12-07T07:33:13;99671.78;;;3.48;92.74
23635;BME280;11994;51.038;16.974;2022-12-07T07:35:39;99670.03;;;3.50;92.84
23635;BME280;11994;51.038;16.974;2022-12-07T07:38:06;99666.56;;;3.49;92.76
23635;BME280;11994;51.038;16.974;2022-12-07T07:40:34;99671.75;;;3.49;92.71
23635;BME280;11994;51.038;16.974;2022-12-07T07:43:00;99666.98;;;3.52;92.86
23635;BME280;11994;51.038;16.974;2022-12-07T07:45:27;99667.86;;;3.52;92.81
23635;BME280;11994;51.038;16.974;2022-12-07T07:47:53;99670.88;;;3.55;92.68
23635;BME280;11994;51.038;16.974;2022-12-07T07:50:20;99662.65;;;3.57;92.66
23635;BME280;11994;51.038;16.974;2022-12-07T07:52:46;99663.49;;;3.60;92.54
23635;BME280;11994;51.038;16.974;2022-12-07T07:55:12;99668.27;;;3.62;92.53
23635;BME280;11994;51.038;16.974;2022-12-07T07:57:39;99672.57;;;3.65;92.61
23635;BME280;11994;51.038;16.974;2022-12-07T08:00:09;99669.98;;;3.65;92.47
23635;BME280;11994;51.038;16.974;2022-12-07T08:02:36;99670.82;;;3.67;92.54
23635;BME280;11994;51.038;16.974;2022-12-07T08:05:02;99668.63;;;3.72;92.87
23635;BME280;11994;51.038;16.974;2022-12-07T08:07:28;99676.40;;;3.75;92.94
23635;BME280;11994;51.038;16.974;2022-12-07T08:09:54;99682.88;;;3.75;92.58
23635;BME280;11994;51.038;16.974;2022-12-07T08:12:20;99679.41;;;3.75;92.43
23635;BME280;11994;51.038;16.974;2022-12-07T08:14:46;99679.87;;;3.73;92.25
23635;BME280;11994;51.038;16.974;2022-12-07T08:17:12;99676.40;;;3.74;92.36
23635;BME280;11994;51.038;16.974;2022-12-07T08:19:38;99682.01;;;3.75;92.36
23635;BME280;11994;51.038;16.974;2022-12-07T08:22:04;99675.98;;;3.73;92.23
23635;BME280;11994;51.038;16.974;2022-12-07T08:24:35;99682.49;;;3.70;92.05
23635;BME280;11994;51.038;16.974;2022-12-07T08:27:01;99676.43;;;3.68;92.02
23635;BME280;11994;51.038;16.974;2022-12-07T08:29:28;99674.71;;;3.67;92.05
23635;BME280;11994;51.038;16.974;2022-12-07T08:31:54;99682.88;;;3.74;92.21
23635;BME280;11994;51.038;16.974;2022-12-07T08:34:20;99676.83;;;3.78;92.17
23635;BME280;11994;51.038;16.974;2022-12-07T08:36:46;99675.07;;;3.83;92.21
23635;BME280;11994;51.038;16.974;2022-12-07T08:39:11;99673.73;;;3.86;92.19
23635;BME280;11994;51.038;16.974;2022-12-07T08:41:37;99672.44;;;3.89;92.03
23635;BME280;11994;51.038;16.974;2022-12-07T08:44:04;99666.37;;;3.91;91.99
23635;BME280;11994;51.038;16.974;2022-12-07T08:46:35;99664.20;;;3.92;91.94
23635;BME280;11994;51.038;16.974;2022-12-07T08:49:18;99667.22;;;3.93;91.70
23635;BME280;11994;51.038;16.974;2022-12-07T08:51:47;99665.88;;;4.01;91.90
23635;BME280;11994;51.038;16.974;2022-12-07T08:54:15;99668.47;;;4.04;91.48
23635;BME280;11994;51.038;16.974;2022-12-07T08:56:43;99663.28;;;4.04;91.31
23635;BME280;11994;51.038;16.974;2022-12-07T08:59:12;99656.26;;;4.16;91.86
23635;BME280;11994;51.038;16.974;2022-12-07T09:01:39;99657.46;;;4.30;91.86
23635;BME280;11994;51.038;16.974;2022-12-07T09:04:05;99654.76;;;4.45;91.99
23635;BME280;11994;51.038;16.974;2022-12-07T09:06:31;99651.59;;;4.60;92.01
23635;BME280;11994;51.038;16.974;2022-12-07T09:08:58;99650.59;;;4.73;91.92
23635;BME280;11994;51.038;16.974;2022-12-07T09:11:26;99649.63;;;4.86;91.47
23635;BME280;11994;51.038;16.974;2022-12-07T09:13:52;99641.38;;;4.87;90.74
23635;BME280;11994;51.038;16.974;2022-12-07T09:16:18;99645.28;;;4.87;90.67
23635;BME280;11994;51.038;16.974;2022-12-07T09:18:44;99635.28;;;4.92;90.70
23635;BME280;11994;51.038;16.974;2022-12-07T09:21:09;99629.48;;;5.05;90.95
23635;BME280;11994;51.038;16.974;2022-12-07T09:23:35;99642.47;;;5.08;90.57
23635;BME280;11994;51.038;16.974;2022-12-07T09:26:03;99636.39;;;5.07;90.49
23635;BME280;11994;51.038;16.974;2022-12-07T09:28:30;99631.66;;;5.07;90.21
23635;BME280;11994;51.038;16.974;2022-12-07T09:30:57;99630.36;;;5.07;90.19
23635;BME280;11994;51.038;16.974;2022-12-07T09:33:22;99630.83;;;5.03;90.00
23635;BME280;11994;51.038;16.974;2022-12-07T09:35:50;99627.78;;;5.04;90.17
23635;BME280;11994;51.038;16.974;2022-12-07T09:38:18;99612.99;;;5.09;90.42
23635;BME280;11994;51.038;16.974;2022-12-07T09:40:45;99607.78;;;5.12;90.29
23635;BME280;11994;51.038;16.974;2022-12-07T09:43:17;99612.11;;;5.10;89.97
23635;BME280;11994;51.038;16.974;2022-12-07T09:45:47;99605.66;;;5.07;89.76
23635;BME280;11994;51.038;16.974;2022-12-07T09:48:33;99599.59;;;5.08;89.85
23635;BME280;11994;51.038;16.974;2022-12-07T09:50:59;99603.43;;;5.11;89.92
23635;BME280;11994;51.038;16.974;2022-12-07T09:53:28;99601.70;;;5.13;90.02
23635;BME280;11994;51.038;16.974;2022-12-07T09:56:02;99607.26;;;5.17;90.10
23635;BME280;11994;51.038;16.974;2022-12-07T09:58:30;99604.17;;;5.20;90.08
23635;BME280;11994;51.038;16.974;2022-12-07T10:01:21;99599.38;;;5.23;90.20
23635;BME280;11994;51.038;16.974;2022-12-07T10:03:39;99594.23;;;5.21;89.91
23635;BME280;11994;51.038;16.974;2022-12-07T10:06:10;99589.04;;;5.20;89.92
23635;BME280;11994;51.038;16.974;2022-12-07T10:08:38;99589.03;;;5.21;89.82
23635;BME280;11994;51.038;16.974;2022-12-07T10:11:05;99580.75;;;5.25;90.00
23635;BME280;11994;51.038;16.974;2022-12-07T10:13:36;99581.09;;;5.32;90.26
23635;BME280;11994;51.038;16.974;2022-12-07T10:16:04;99578.88;;;5.36;90.08
23635;BME280;11994;51.038;16.974;2022-12-07T10:21:18;99563.94;;;5.50;90.42
23635;BME280;11994;51.038;16.974;2022-12-07T10:24:05;99556.55;;;5.51;90.03
23635;BME280;11994;51.038;16.974;2022-12-07T10:26:50;99554.42;;;5.49;89.90
23635;BME280;11994;51.038;16.974;2022-12-07T10:29:29;99552.72;;;5.46;89.84
23635;BME280;11994;51.038;16.974;2022-12-07T10:32:03;99549.29;;;5.44;89.69
23635;BME280;11994;51.038;16.974;2022-12-07T10:34:34;99556.22;;;5.44;89.66
23635;BME280;11994;51.038;16.974;2022-12-07T10:37:18;99549.23;;;5.47;89.81
23635;BME280;11994;51.038;16.974;2022-12-07T10:39:47;99550.13;;;5.45;89.62
23635;BME280;11994;51.038;16.974;2022-12-07T10:42:25;99557.60;;;5.38;89.20
23635;BME280;11994;51.038;16.974;2022-12-07T10:45:15;99552.01;;;5.34;88.74
23635;BME280;11994;51.038;16.974;2022-12-07T10:47:55;99560.71;;;5.31;88.49
23635;BME280;11994;51.038;16.974;2022-12-07T10:50:56;99555.55;;;5.30;88.55
23635;BME280;11994;51.038;16.974;2022-12-07T10:56:44;99563.84;;;5.26;88.05
23635;BME280;11994;51.038;16.974;2022-12-07T11:04:38;99567.50;;;5.10;87.24
23635;BME280;11994;51.038;16.974;2022-12-07T11:07:34;99563.21;;;5.05;87.17
23635;BME280;11994;51.038;16.974;2022-12-07T11:10:34;99567.60;;;5.00;87.18
23635;BME280;11994;51.038;16.974;2022-12-07T11:18:57;99562.60;;;4.85;87.49
23635;BME280;11994;51.038;16.974;2022-12-07T11:27:24;99538.33;;;4.86;87.83
23635;BME280;11994;51.038;16.974;2022-12-07T11:30:24;99545.24;;;4.87;87.89
23635;BME280;11994;51.038;16.974;2022-12-07T11:38:27;99541.25;;;4.96;87.83
23635;BME280;11994;51.038;16.974;2022-12-07T11:41:03;99531.28;;;4.95;87.85
23635;BME280;11994;51.038;16.974;2022-12-07T11:44:00;99532.16;;;4.96;87.66
23635;BME280;11994;51.038;16.974;2022-12-07T11:46:36;99529.09;;;4.98;87.43
23635;BME280;11994;51.038;16.974;2022-12-07T11:49:44;99521.70;;;4.99;87.47
23635;BME280;11994;51.038;16.974;2022-12-07T11:52:43;99534.21;;;5.04;87.48
23635;BME280;11994;51.038;16.974;2022-12-07T11:55:19;99530.31;;;5.04;87.43
23635;BME280;11994;51.038;16.974;2022-12-07T11:57:49;99532.92;;;5.02;87.45
23635;BME280;11994;51.038;16.974;2022-12-07T12:00:18;99529.92;;;5.00;87.24
23635;BME280;11994;51.038;16.974;2022-12-07T12:05:24;99535.17;;;4.97;87.54
23635;BME280;11994;51.038;16.974;2022-12-07T12:07:54;99525.17;;;5.01;87.66
23635;BME280;11994;51.038;16.974;2022-12-07T12:16:18;99533.81;;;5.00;86.87
23635;BME280;11994;51.038;16.974;2022-12-07T12:18:57;99523.06;;;4.96;86.76
23635;BME280;11994;51.038;16.974;2022-12-07T12:21:30;99518.76;;;4.93;86.90
23635;BME280;11994;51.038;16.974;2022-12-07T12:26:33;99523.09;;;4.91;87.18
23635;BME280;11994;51.038;16.974;2022-12-07T12:29:19;99523.08;;;4.93;87.05
23635;BME280;11994;51.038;16.974;2022-12-07T12:31:39;99526.09;;;4.94;87.14
23635;BME280;11994;51.038;16.974;2022-12-07T12:34:30;99523.95;;;4.93;87.04
23635;BME280;11994;51.038;16.974;2022-12-07T12:42:55;99519.72;;;4.86;86.72
23635;BME280;11994;51.038;16.974;2022-12-07T12:45:29;99510.22;;;4.84;86.79
23635;BME280;11994;51.038;16.974;2022-12-07T12:48:31;99502.84;;;4.85;86.83
23635;BME280;11994;51.038;16.974;2022-12-07T12:57:00;99510.09;;;4.93;86.87
23635;BME280;11994;51.038;16.974;2022-12-07T13:02:31;99510.50;;;4.94;87.00
23635;BME280;11994;51.038;16.974;2022-12-07T13:07:50;99515.27;;;4.96;87.05
23635;BME280;11994;51.038;16.974;2022-12-07T13:10:40;99517.86;;;4.96;87.05
23635;BME280;11994;51.038;16.974;2022-12-07T13:15:54;99525.25;;;4.95;86.72
23635;BME280;11994;51.038;16.974;2022-12-07T13:29:21;99524.38;;;4.93;86.02
23635;BME280;11994;51.038;16.974;2022-12-07T13:31:56;99521.37;;;4.92;85.82
23635;BME280;11994;51.038;16.974;2022-12-07T13:39:56;99526.02;;;5.00;86.14
23635;BME280;11994;51.038;16.974;2022-12-07T13:42:32;99523.83;;;5.02;86.13
23635;BME280;11994;51.038;16.974;2022-12-07T13:45:14;99529.02;;;5.02;86.24
23635;BME280;11994;51.038;16.974;2022-12-07T13:47:45;99534.63;;;5.05;86.28
23635;BME280;11994;51.038;16.974;2022-12-07T13:50:30;99530.31;;;5.04;86.10
23635;BME280;11994;51.038;16.974;2022-12-07T13:52:59;99525.12;;;5.04;86.11
23635;BME280;11994;51.038;16.974;2022-12-07T13:55:27;99520.75;;;5.06;86.13
23635;BME280;11994;51.038;16.974;2022-12-07T13:57:55;99524.69;;;5.04;85.98
23635;BME280;11994;51.038;16.974;2022-12-07T14:00:27;99525.94;;;5.06;85.88
23635;BME280;11994;51.038;16.974;2022-12-07T14:03:03;99525.93;;;5.07;85.87
23635;BME280;11994;51.038;16.974;2022-12-07T14:05:32;99525.05;;;5.08;85.85
23635;BME280;11994;51.038;16.974;2022-12-07T14:10:42;99534.59;;;5.09;85.68
23635;BME280;11994;51.038;16.974;2022-12-07T14:16:20;99535.00;;;5.12;85.62
23635;BME280;11994;51.038;16.974;2022-12-07T14:18:47;99535.00;;;5.12;85.52
23635;BME280;11994;51.038;16.974;2022-12-07T14:21:19;99531.95;;;5.11;85.55
23635;BME280;11994;51.038;16.974;2022-12-07T14:23:44;99529.34;;;5.11;85.61
23635;BME280;11994;51.038;16.974;2022-12-07T14:26:15;99530.21;;;5.13;85.59
23635;BME280;11994;51.038;16.974;2022-12-07T14:28:45;99520.70;;;5.12;85.52
23635;BME280;11994;51.038;16.974;2022-12-07T14:31:15;99529.75;;;5.13;85.61
23635;BME280;11994;51.038;16.974;2022-12-07T14:33:42;99519.81;;;5.13;85.58
23635;BME280;11994;51.038;16.974;2022-12-07T14:36:11;99531.53;;;5.10;85.33
23635;BME280;11994;51.038;16.974;2022-12-07T14:38:38;99535.91;;;5.08;85.26
23635;BME280;11994;51.038;16.974;2022-12-07T14:41:10;99538.52;;;5.05;85.20
23635;BME280;11994;51.038;16.974;2022-12-07T14:43:59;99535.09;;;5.03;85.17
23635;BME280;11994;51.038;16.974;2022-12-07T14:46:25;99527.39;;;4.94;84.37
23635;BME280;11994;51.038;16.974;2022-12-07T14:48:51;99530.48;;;4.89;84.71
23635;BME280;11994;51.038;16.974;2022-12-07T14:51:17;99529.19;;;4.89;84.89
23635;BME280;11994;51.038;16.974;2022-12-07T14:53:49;99529.19;;;4.89;84.89
23635;BME280;11994;51.038;16.974;2022-12-07T14:56:16;99529.64;;;4.88;84.80
23635;BME280;11994;51.038;16.974;2022-12-07T14:58:41;99524.88;;;4.88;84.88
23635;BME280;11994;51.038;16.974;2022-12-07T15:01:07;99525.34;;;4.86;84.92
23635;BME280;11994;51.038;16.974;2022-12-07T15:03:33;99524.11;;;4.80;84.70
23635;BME280;11994;51.038;16.974;2022-12-07T15:06:01;99523.70;;;4.77;84.83
23635;BME280;11994;51.038;16.974;2022-12-07T15:08:26;99527.19;;;4.76;84.74
23635;BME280;11994;51.038;16.974;2022-12-07T15:10:52;99532.41;;;4.72;84.68